createdAt,value
2023-09-29T00:05:45.295Z,7.15
2023-09-29T00:16:43.711Z,8.88
2023-09-29T00:23:26.150Z,12.63
2023-09-29T00:30:11.201Z,8.38
2023-09-29T00:36:53.384Z,10.02
2023-09-29T00:43:36.663Z,10.75
2023-09-29T00:50:20.989Z,9.32
2023-09-29T00:57:06.705Z,8.05
2023-09-29T01:03:51.342Z,8.15
2023-09-29T01:10:34.797Z,9.43
2023-09-29T01:17:19.176Z,9.93
2023-09-29T01:24:01.521Z,10.80
2023-09-29T01:30:44.332Z,10.90
2023-09-29T01:37:26.961Z,10.25
2023-09-29T01:44:09.223Z,8.80
2023-09-29T01:50:51.584Z,13.95
2023-09-29T01:57:34.351Z,8.57
2023-09-29T02:04:16.751Z,7.20
2023-09-29T02:11:01.224Z,8.20
2023-09-29T02:17:45.492Z,8.50
2023-09-29T02:24:27.894Z,9.00
2023-09-29T02:31:13.978Z,7.95
2023-09-29T02:37:56.282Z,10.00
2023-09-29T02:44:39.057Z,7.57
2023-09-29T02:51:21.618Z,6.45
2023-09-29T02:58:04.269Z,8.30
2023-09-29T03:04:48.002Z,8.75
2023-09-29T03:11:30.279Z,9.68
2023-09-29T03:18:12.628Z,8.27
2023-09-29T03:24:54.954Z,6.35
2023-09-29T03:31:37.239Z,8.35
2023-09-29T03:38:21.210Z,12.98
2023-09-29T03:45:06.287Z,9.00
2023-09-29T03:51:48.667Z,7.78
2023-09-29T03:58:30.897Z,11.13
2023-09-29T04:05:13.060Z,11.40
2023-09-29T04:11:55.275Z,7.20
2023-09-29T04:18:39.213Z,11.52
2023-09-29T04:25:21.669Z,8.55
2023-09-29T04:32:04.729Z,9.52
2023-09-29T04:38:46.999Z,10.23
2023-09-29T04:45:29.288Z,8.90
2023-09-29T04:52:11.574Z,10.90
2023-09-29T04:58:54.124Z,10.57
2023-09-29T05:05:36.566Z,10.57
2023-09-29T05:12:18.961Z,11.48
2023-09-29T05:19:01.906Z,7.25
2023-09-29T05:25:46.222Z,6.65
2023-09-29T05:32:30.968Z,13.38
2023-09-29T05:39:15.218Z,9.63
2023-09-29T05:45:57.536Z,8.25
2023-09-29T05:52:39.776Z,9.23
2023-09-29T05:59:22.166Z,7.10
2023-09-29T06:06:05.294Z,11.60
2023-09-29T06:12:47.491Z,13.25
2023-09-29T06:19:29.704Z,12.85
2023-09-29T06:26:12.675Z,9.52
2023-09-29T06:32:55.082Z,11.60
2023-09-29T06:39:37.791Z,10.55
2023-09-29T06:46:20.059Z,7.43
2023-09-29T06:53:03.454Z,8.90
2023-09-29T06:59:45.653Z,7.30
2023-09-29T07:06:27.945Z,10.50
2023-09-29T07:13:11.391Z,8.52
2023-09-29T07:19:53.594Z,9.43
2023-09-29T07:26:36.237Z,14.63
2023-09-29T07:33:19.166Z,10.18
2023-09-29T07:40:01.664Z,8.07
2023-09-29T07:46:43.908Z,11.23
2023-09-29T07:53:26.126Z,10.02
2023-09-29T08:00:13.546Z,10.57
2023-09-29T08:06:55.959Z,7.95
2023-09-29T08:13:38.157Z,6.40
2023-09-29T08:20:21.071Z,6.35
2023-09-29T08:27:03.428Z,9.65
2023-09-29T08:33:51.265Z,6.43
2023-09-29T08:40:40.213Z,7.20
2023-09-29T08:47:28.556Z,7.35
2023-09-29T08:54:10.912Z,6.90
2023-09-29T09:00:53.573Z,6.90
2023-09-29T09:07:36.044Z,10.55
2023-09-29T09:14:19.252Z,6.70
2023-09-29T09:21:01.586Z,5.32
2023-09-29T09:27:44.340Z,7.95
2023-09-29T09:34:38.369Z,6.38
2023-09-29T09:41:20.918Z,6.78
2023-09-29T09:48:09.451Z,5.32
2023-09-29T09:54:58.778Z,7.88
2023-09-29T10:01:41.733Z,12.07
2023-09-29T10:08:31.337Z,9.05
2023-09-29T10:15:15.527Z,5.65
2023-09-29T10:22:00.589Z,5.30
2023-09-29T10:28:44.587Z,9.32
2023-09-29T10:35:27.422Z,5.35
2023-09-29T10:42:16.208Z,8.20
2023-09-29T10:48:59.122Z,9.80
2023-09-29T10:55:52.283Z,4.55
2023-09-29T11:02:34.937Z,4.75
2023-09-29T11:09:20.476Z,6.00
2023-09-29T11:16:05.064Z,4.45
2023-09-29T11:23:00.191Z,6.90
2023-09-29T11:29:44.040Z,4.05
2023-09-29T11:36:30.084Z,4.85
2023-09-29T11:43:13.061Z,7.00
2023-09-29T11:49:57.300Z,9.40
2023-09-29T11:56:39.726Z,5.05
2023-09-29T12:03:24.059Z,7.00
2023-09-29T12:10:07.029Z,8.40
2023-09-29T12:16:49.239Z,7.50
2023-09-29T12:23:31.532Z,5.00
2023-09-29T12:30:13.981Z,4.05
2023-09-29T12:36:56.315Z,9.05
2023-09-29T12:43:39.996Z,7.68
2023-09-29T12:50:23.455Z,5.30
2023-09-29T12:57:06.635Z,3.58
2023-09-29T13:03:49.237Z,4.47
2023-09-29T13:10:32.562Z,6.10
2023-09-29T13:17:14.871Z,6.38
2023-09-29T13:23:57.489Z,8.93
2023-09-29T13:30:53.299Z,4.03
2023-09-29T13:37:37.556Z,5.38
2023-09-29T13:44:19.780Z,3.90
2023-09-29T13:51:06.949Z,7.68
2023-09-29T13:57:49.235Z,5.95
2023-09-29T14:04:32.023Z,5.43
2023-09-29T14:11:14.444Z,3.92
2023-09-29T14:17:57.609Z,4.90
2023-09-29T14:24:40.024Z,4.95
2023-09-29T14:31:25.857Z,6.90
2023-09-29T14:38:08.182Z,6.00
2023-09-29T14:44:50.733Z,6.85
2023-09-29T14:51:32.952Z,5.97
2023-09-29T14:58:15.134Z,6.30
2023-09-29T15:04:57.673Z,4.00
2023-09-29T15:11:39.956Z,4.82
2023-09-29T15:18:22.816Z,12.63
2023-09-29T15:25:05.617Z,4.88
2023-09-29T15:31:48.618Z,9.95
2023-09-29T15:38:30.835Z,10.00
2023-09-29T15:45:14.772Z,12.25
2023-09-29T15:51:57.218Z,10.40
2023-09-29T15:58:40.898Z,19.42
2023-09-29T16:05:23.228Z,17.27
2023-09-29T16:12:05.771Z,18.13
2023-09-29T16:18:48.514Z,19.88
2023-09-29T16:25:34.989Z,20.77
2023-09-29T16:32:31.079Z,19.73
2023-09-29T16:39:16.362Z,27.73
2023-09-29T16:45:58.841Z,28.83
2023-09-29T16:52:42.290Z,36.65
2023-09-29T16:59:24.514Z,33.25
2023-09-29T17:06:06.863Z,37.90
2023-09-29T17:12:49.167Z,35.10
2023-09-29T17:19:31.435Z,34.90
2023-09-29T17:26:14.627Z,35.30
2023-09-29T17:32:56.889Z,32.30
2023-09-29T17:39:39.209Z,32.90
2023-09-29T17:46:21.625Z,33.38
2023-09-29T17:53:04.010Z,31.10
2023-09-29T17:59:46.355Z,32.80
2023-09-29T18:06:29.843Z,31.58
2023-09-29T18:13:12.308Z,31.40
2023-09-29T18:19:54.535Z,30.40
2023-09-29T18:26:37.029Z,31.42
2023-09-29T18:33:19.452Z,31.40
2023-09-29T18:40:01.863Z,32.40
2023-09-29T18:46:45.709Z,25.20
2023-09-29T18:53:27.989Z,25.92
2023-09-29T19:00:12.546Z,21.88
2023-09-29T19:06:55.862Z,23.58
2023-09-29T19:13:38.330Z,21.20
2023-09-29T19:20:21.041Z,20.92
2023-09-29T19:27:03.441Z,20.20
2023-09-29T19:33:45.764Z,17.35
2023-09-29T19:40:28.121Z,18.52
2023-09-29T19:47:10.366Z,18.13
2023-09-29T19:53:56.420Z,16.02
2023-09-29T20:00:39.074Z,20.40
2023-09-29T20:07:21.416Z,15.10
2023-09-29T20:14:04.002Z,16.00
2023-09-29T20:20:47.192Z,15.32
2023-09-29T20:27:29.579Z,13.63
2023-09-29T20:34:14.723Z,12.93
2023-09-29T20:40:57.153Z,11.80
2023-09-29T20:47:41.469Z,10.40
2023-09-29T20:54:23.800Z,11.70
2023-09-29T21:01:06.548Z,13.25
2023-09-29T21:07:49.290Z,10.10
2023-09-29T21:14:33.673Z,8.13
2023-09-29T21:21:16.957Z,9.00
2023-09-29T21:27:59.489Z,8.63
2023-09-29T21:34:41.757Z,9.48
2023-09-29T21:41:24.298Z,5.60
2023-09-29T21:48:07.328Z,6.95
2023-09-29T21:54:49.638Z,8.57
2023-09-29T22:01:32.018Z,7.60
2023-09-29T22:08:15.199Z,8.90
2023-09-29T22:14:57.652Z,6.50
2023-09-29T22:21:40.002Z,10.75
2023-09-29T22:28:22.387Z,9.30
2023-09-29T22:35:05.547Z,7.88
2023-09-29T22:41:48.814Z,7.13
2023-09-29T22:48:31.512Z,10.32
2023-09-29T22:55:14.791Z,9.93
2023-09-29T23:01:56.988Z,9.93
2023-09-29T23:08:40.234Z,8.38
2023-09-29T23:15:23.251Z,8.73
2023-09-29T23:22:05.509Z,7.82
2023-09-29T23:28:47.740Z,7.25
2023-09-29T23:35:31.281Z,9.82
2023-09-29T23:42:13.532Z,7.57
2023-09-29T23:48:56.093Z,7.38
2023-09-29T23:55:38.366Z,8.48
